createdAt,value
2023-04-29T00:00:50.048Z,1005.46
2023-04-29T00:01:50.084Z,1005.44
2023-04-29T00:02:50.237Z,1005.48
2023-04-29T00:03:50.143Z,1005.49
2023-04-29T00:04:50.230Z,1005.50
2023-04-29T00:05:50.051Z,1005.51
2023-04-29T00:06:49.985Z,1005.53
2023-04-29T00:07:49.984Z,1005.54
2023-04-29T00:08:49.977Z,1005.50
2023-04-29T00:09:49.970Z,1005.53
2023-04-29T00:10:49.942Z,1005.51
2023-04-29T00:11:49.922Z,1005.47
2023-04-29T00:12:49.910Z,1005.51
2023-04-29T00:13:49.909Z,1005.46
2023-04-29T00:14:49.932Z,1005.50
2023-04-29T00:15:49.883Z,1005.54
2023-04-29T00:16:49.938Z,1005.47
2023-04-29T00:17:49.893Z,1005.54
2023-04-29T00:18:49.844Z,1005.53
2023-04-29T00:19:50.038Z,1005.57
2023-04-29T00:20:49.867Z,1005.55
2023-04-29T00:21:49.823Z,1005.54
2023-04-29T00:22:49.813Z,1005.54
2023-04-29T00:23:49.792Z,1005.54
2023-04-29T00:24:49.778Z,1005.53
2023-04-29T00:25:49.791Z,1005.60
2023-04-29T00:26:49.756Z,1005.60
2023-04-29T00:27:49.747Z,1005.59
2023-04-29T00:28:49.747Z,1005.61
2023-04-29T00:29:49.807Z,1005.60
2023-04-29T00:30:49.785Z,1005.58
2023-04-29T00:31:49.708Z,1005.64
2023-04-29T00:32:49.717Z,1005.71
2023-04-29T00:33:49.683Z,1005.67
2023-04-29T00:34:49.692Z,1005.74
2023-04-29T00:35:49.693Z,1005.74
2023-04-29T00:36:49.669Z,1005.73
2023-04-29T00:37:49.646Z,1005.74
2023-04-29T00:38:49.620Z,1005.77
2023-04-29T00:39:49.744Z,1005.77
2023-04-29T00:40:49.597Z,1005.75
2023-04-29T00:41:49.609Z,1005.78
2023-04-29T00:42:49.580Z,1005.83
2023-04-29T00:43:49.588Z,1005.77
2023-04-29T00:44:49.583Z,1005.83
2023-04-29T00:45:49.594Z,1005.82
2023-04-29T00:46:49.557Z,1005.83
2023-04-29T00:47:49.581Z,1005.82
2023-04-29T00:48:49.510Z,1005.88
2023-04-29T00:49:49.640Z,1005.85
2023-04-29T00:50:49.525Z,1005.83
2023-04-29T00:51:49.496Z,1005.88
2023-04-29T00:52:49.470Z,1005.91
2023-04-29T00:53:49.761Z,1005.90
2023-04-29T00:54:49.444Z,1005.97
2023-04-29T00:55:49.456Z,1005.95
2023-04-29T00:56:49.442Z,1006.04
2023-04-29T00:57:49.415Z,1005.95
2023-04-29T00:58:49.407Z,1006.02
2023-04-29T00:59:49.392Z,1006.00
2023-04-29T01:00:49.407Z,1006.04
2023-04-29T01:01:49.396Z,1006.11
2023-04-29T01:02:49.475Z,1006.12
2023-04-29T01:03:49.475Z,1006.07
2023-04-29T01:04:49.426Z,1006.11
2023-04-29T01:05:49.356Z,1006.15
2023-04-29T01:06:49.318Z,1006.18
2023-04-29T01:07:49.307Z,1006.17
2023-04-29T01:08:49.298Z,1006.19
2023-04-29T01:09:49.276Z,1006.17
2023-04-29T01:10:49.275Z,1006.23
2023-04-29T01:11:49.275Z,1006.20
2023-04-29T01:12:49.260Z,1006.24
2023-04-29T01:13:49.232Z,1006.23
2023-04-29T01:14:49.222Z,1006.26
2023-04-29T01:15:49.258Z,1006.27
2023-04-29T01:16:49.229Z,1006.34
2023-04-29T01:17:49.205Z,1006.27
2023-04-29T01:18:49.193Z,1006.32
2023-04-29T01:19:49.189Z,1006.32
2023-04-29T01:20:49.166Z,1006.35
2023-04-29T01:21:49.163Z,1006.41
2023-04-29T01:22:49.162Z,1006.37
2023-04-29T01:23:49.152Z,1006.41
2023-04-29T01:24:49.116Z,1006.39
2023-04-29T01:25:49.107Z,1006.40
2023-04-29T01:26:49.103Z,1006.44
2023-04-29T01:27:49.080Z,1006.41
2023-04-29T01:28:49.077Z,1006.43
2023-04-29T01:29:49.087Z,1006.48
2023-04-29T01:30:49.046Z,1006.45
2023-04-29T01:31:49.142Z,1006.43
2023-04-29T01:32:49.081Z,1006.49
2023-04-29T01:33:49.009Z,1006.46
2023-04-29T01:34:49.032Z,1006.54
2023-04-29T01:35:48.993Z,1006.51
2023-04-29T01:36:48.988Z,1006.48
2023-04-29T01:37:48.966Z,1006.49
2023-04-29T01:38:48.959Z,1006.51
2023-04-29T01:39:48.964Z,1006.54
2023-04-29T01:40:48.941Z,1006.52
2023-04-29T01:41:48.924Z,1006.53
2023-04-29T01:42:48.916Z,1006.54
2023-04-29T01:43:48.898Z,1006.58
2023-04-29T01:44:48.920Z,1006.56
2023-04-29T01:45:48.893Z,1006.63
2023-04-29T01:46:48.881Z,1006.61
2023-04-29T01:47:48.894Z,1006.61
2023-04-29T01:48:48.840Z,1006.62
2023-04-29T01:49:48.854Z,1006.62
2023-04-29T01:50:48.821Z,1006.63
2023-04-29T01:51:48.828Z,1006.63
2023-04-29T01:52:48.804Z,1006.65
2023-04-29T01:53:48.791Z,1006.61
2023-04-29T01:54:48.802Z,1006.67
2023-04-29T01:55:48.768Z,1006.65
2023-04-29T01:56:48.756Z,1006.71
2023-04-29T01:57:48.751Z,1006.64
2023-04-29T01:58:48.734Z,1006.68
2023-04-29T01:59:48.725Z,1006.73
2023-04-29T02:00:48.798Z,1006.72
2023-04-29T02:01:48.706Z,1006.75
2023-04-29T02:02:48.808Z,1006.68
2023-04-29T02:03:48.909Z,1006.72
2023-04-29T02:04:48.729Z,1006.71
2023-04-29T02:05:48.664Z,1006.68
2023-04-29T02:06:48.689Z,1006.75
2023-04-29T02:07:48.626Z,1006.68
2023-04-29T02:08:48.628Z,1006.74
2023-04-29T02:09:48.606Z,1006.76
2023-04-29T02:10:48.609Z,1006.71
2023-04-29T02:11:48.595Z,1006.78
2023-04-29T02:12:48.602Z,1006.76
2023-04-29T02:13:48.568Z,1006.79
2023-04-29T02:14:48.562Z,1006.88
2023-04-29T02:15:48.565Z,1006.83
2023-04-29T02:16:48.572Z,1006.82
2023-04-29T02:17:48.590Z,1006.84
2023-04-29T02:18:48.519Z,1006.84
2023-04-29T02:19:48.499Z,1006.89
2023-04-29T02:20:48.490Z,1006.82
2023-04-29T02:21:48.499Z,1006.92
2023-04-29T02:22:48.524Z,1006.87
2023-04-29T02:23:48.461Z,1006.88
2023-04-29T02:24:48.453Z,1006.90
2023-04-29T02:25:48.449Z,1006.89
2023-04-29T02:26:48.435Z,1006.89
2023-04-29T02:27:48.435Z,1006.96
2023-04-29T02:28:48.405Z,1006.90
2023-04-29T02:29:48.390Z,1006.95
2023-04-29T02:30:48.386Z,1006.92
2023-04-29T02:31:48.408Z,1006.97
2023-04-29T02:32:48.409Z,1006.95
2023-04-29T02:33:48.373Z,1006.95
2023-04-29T02:34:48.343Z,1006.97
2023-04-29T02:35:48.329Z,1007.03
2023-04-29T02:36:48.314Z,1006.98
2023-04-29T02:37:48.306Z,1006.98
2023-04-29T02:38:48.429Z,1007.00
2023-04-29T02:39:48.289Z,1006.97
2023-04-29T02:40:48.278Z,1006.98
2023-04-29T02:41:48.262Z,1007.01
2023-04-29T02:42:48.256Z,1007.02
2023-04-29T02:43:48.263Z,1007.02
2023-04-29T02:44:48.240Z,1007.05
2023-04-29T02:45:48.265Z,1007.07
2023-04-29T02:46:48.212Z,1007.00
2023-04-29T02:47:48.220Z,1007.07
2023-04-29T02:48:48.217Z,1007.06
2023-04-29T02:49:48.199Z,1007.03
2023-04-29T02:50:48.160Z,1007.07
2023-04-29T02:51:48.153Z,1007.15
2023-04-29T02:52:48.145Z,1007.06
2023-04-29T02:53:48.174Z,1007.09
2023-04-29T02:54:48.115Z,1007.11
2023-04-29T02:55:48.109Z,1007.12
2023-04-29T02:56:48.095Z,1007.11
2023-04-29T02:57:48.084Z,1007.16
2023-04-29T02:58:48.098Z,1007.14
2023-04-29T02:59:48.106Z,1007.13
2023-04-29T03:00:48.064Z,1007.16
2023-04-29T03:01:48.081Z,1007.17
2023-04-29T03:02:48.163Z,1007.19
2023-04-29T03:03:48.298Z,1007.21
2023-04-29T03:04:48.012Z,1007.15
2023-04-29T03:05:48.023Z,1007.19
2023-04-29T03:06:47.998Z,1007.21
2023-04-29T03:07:47.975Z,1007.14
2023-04-29T03:08:47.972Z,1007.13
2023-04-29T03:09:47.954Z,1007.14
2023-04-29T03:10:47.985Z,1007.20
2023-04-29T03:11:47.938Z,1007.19
2023-04-29T03:12:47.925Z,1007.18
2023-04-29T03:13:47.906Z,1007.16
2023-04-29T03:14:47.902Z,1007.22
2023-04-29T03:15:47.907Z,1007.23
2023-04-29T03:16:47.972Z,1007.14
2023-04-29T03:17:47.991Z,1007.18
2023-04-29T03:18:47.871Z,1007.16
2023-04-29T03:19:47.843Z,1007.18
2023-04-29T03:20:47.833Z,1007.21
2023-04-29T03:21:47.842Z,1007.21
2023-04-29T03:22:47.809Z,1007.22
2023-04-29T03:23:47.807Z,1007.17
2023-04-29T03:24:47.788Z,1007.21
2023-04-29T03:25:47.793Z,1007.27
2023-04-29T03:26:47.802Z,1007.23
2023-04-29T03:27:47.750Z,1007.29
2023-04-29T03:28:47.741Z,1007.31
2023-04-29T03:29:47.729Z,1007.34
2023-04-29T03:30:47.722Z,1007.27
2023-04-29T03:31:47.771Z,1007.34
2023-04-29T03:32:47.742Z,1007.33
2023-04-29T03:33:47.686Z,1007.33
2023-04-29T03:34:47.681Z,1007.32
2023-04-29T03:35:47.661Z,1007.37
2023-04-29T03:36:47.650Z,1007.37
2023-04-29T03:37:47.657Z,1007.34
2023-04-29T03:38:47.630Z,1007.43
2023-04-29T03:39:47.618Z,1007.40
2023-04-29T03:40:47.609Z,1007.46
2023-04-29T03:41:47.593Z,1007.43
2023-04-29T03:42:47.585Z,1007.40
2023-04-29T03:43:47.604Z,1007.40
2023-04-29T03:44:47.556Z,1007.41
2023-04-29T03:45:47.582Z,1007.46
2023-04-29T03:46:47.533Z,1007.47
2023-04-29T03:47:47.559Z,1007.50
2023-04-29T03:48:47.544Z,1007.49
2023-04-29T03:49:47.512Z,1007.48
2023-04-29T03:50:47.503Z,1007.49
2023-04-29T03:51:47.484Z,1007.54
2023-04-29T03:52:47.466Z,1007.52
2023-04-29T03:53:47.456Z,1007.55
2023-04-29T03:54:47.496Z,1007.49
2023-04-29T03:55:47.443Z,1007.56
2023-04-29T03:56:47.431Z,1007.53
2023-04-29T03:57:47.412Z,1007.56
2023-04-29T03:58:47.431Z,1007.53
2023-04-29T03:59:47.392Z,1007.56
2023-04-29T04:00:47.386Z,1007.54
2023-04-29T04:01:47.424Z,1007.57
2023-04-29T04:02:47.585Z,1007.62
2023-04-29T04:03:47.459Z,1007.64
2023-04-29T04:04:47.521Z,1007.68
2023-04-29T04:05:47.321Z,1007.63
2023-04-29T04:06:47.307Z,1007.62
2023-04-29T04:07:47.302Z,1007.69
2023-04-29T04:08:47.298Z,1007.67
2023-04-29T04:09:47.301Z,1007.67
2023-04-29T04:10:47.272Z,1007.68
2023-04-29T04:11:47.258Z,1007.69
2023-04-29T04:12:47.241Z,1007.73
2023-04-29T04:13:47.234Z,1007.70
2023-04-29T04:14:47.219Z,1007.72
2023-04-29T04:15:47.233Z,1007.88
2023-04-29T04:16:47.210Z,1007.74
2023-04-29T04:17:47.204Z,1007.86
2023-04-29T04:18:47.182Z,1007.86
2023-04-29T04:19:47.166Z,1007.87
2023-04-29T04:20:47.179Z,1007.86
2023-04-29T04:21:47.141Z,1007.79
2023-04-29T04:22:47.134Z,1007.86
2023-04-29T04:23:47.130Z,1007.88
2023-04-29T04:24:47.112Z,1007.87
2023-04-29T04:25:47.142Z,1007.97
2023-04-29T04:26:47.112Z,1007.91
2023-04-29T04:27:47.080Z,1007.98
2023-04-29T04:28:47.080Z,1007.94
2023-04-29T04:29:47.051Z,1007.97
2023-04-29T04:30:47.051Z,1008.00
2023-04-29T04:31:47.418Z,1008.05
2023-04-29T04:32:47.047Z,1007.98
2023-04-29T04:33:47.022Z,1007.99
2023-04-29T04:34:47.007Z,1008.01
2023-04-29T04:35:46.994Z,1008.06
2023-04-29T04:36:46.974Z,1008.08
2023-04-29T04:37:46.996Z,1008.12
2023-04-29T04:38:46.956Z,1008.13
2023-04-29T04:39:46.944Z,1008.12
2023-04-29T04:40:46.942Z,1008.20
2023-04-29T04:41:46.936Z,1008.20
2023-04-29T04:42:46.917Z,1008.16
2023-04-29T04:43:46.925Z,1008.20
2023-04-29T04:44:46.886Z,1008.22
2023-04-29T04:45:46.900Z,1008.20
2023-04-29T04:46:46.872Z,1008.17
2023-04-29T04:47:46.881Z,1008.25
2023-04-29T04:48:46.876Z,1008.26
2023-04-29T04:49:46.864Z,1008.28
2023-04-29T04:50:46.827Z,1008.32
2023-04-29T04:51:46.808Z,1008.26
2023-04-29T04:52:46.803Z,1008.33
2023-04-29T04:53:46.789Z,1008.35
2023-04-29T04:54:46.806Z,1008.39
2023-04-29T04:55:46.761Z,1008.38
2023-04-29T04:56:46.756Z,1008.40
2023-04-29T04:57:46.743Z,1008.35
2023-04-29T04:58:46.737Z,1008.40
2023-04-29T04:59:52.991Z,1008.42
2023-04-29T05:00:46.825Z,1008.48
2023-04-29T05:01:46.693Z,1008.45
2023-04-29T05:02:46.964Z,1008.52
2023-04-29T05:03:46.808Z,1008.55
2023-04-29T05:04:46.697Z,1008.54
2023-04-29T05:05:46.678Z,1008.51
2023-04-29T05:06:46.649Z,1008.51
2023-04-29T05:07:46.628Z,1008.54
2023-04-29T05:08:46.624Z,1008.55
2023-04-29T05:09:46.611Z,1008.55
2023-04-29T05:10:46.595Z,1008.56
2023-04-29T05:11:46.627Z,1008.55
2023-04-29T05:12:46.579Z,1008.56
2023-04-29T05:13:46.570Z,1008.57
2023-04-29T05:14:46.574Z,1008.59
2023-04-29T05:15:46.542Z,1008.63
2023-04-29T05:16:46.623Z,1008.61
2023-04-29T05:17:46.570Z,1008.62
2023-04-29T05:18:46.626Z,1008.61
2023-04-29T05:19:46.496Z,1008.63
2023-04-29T05:20:46.475Z,1008.65
2023-04-29T05:21:46.481Z,1008.60
2023-04-29T05:22:46.468Z,1008.63
2023-04-29T05:23:46.476Z,1008.62
2023-04-29T05:24:46.445Z,1008.65
2023-04-29T05:25:46.427Z,1008.67
2023-04-29T05:26:46.431Z,1008.67
2023-04-29T05:27:46.501Z,1008.61
2023-04-29T05:28:46.397Z,1008.67
2023-04-29T05:29:46.405Z,1008.67
2023-04-29T05:30:46.424Z,1008.72
2023-04-29T05:31:46.363Z,1008.71
2023-04-29T05:32:46.382Z,1008.74
2023-04-29T05:33:46.335Z,1008.73
2023-04-29T05:34:46.349Z,1008.80
2023-04-29T05:35:46.311Z,1008.80
2023-04-29T05:36:46.307Z,1008.82
2023-04-29T05:37:46.416Z,1008.82
2023-04-29T05:38:46.282Z,1008.80
2023-04-29T05:39:46.291Z,1008.82
2023-04-29T05:40:46.288Z,1008.88
2023-04-29T05:41:46.252Z,1008.88
2023-04-29T05:42:46.238Z,1008.88
2023-04-29T05:43:46.231Z,1008.90
2023-04-29T05:44:46.240Z,1008.90
2023-04-29T05:45:46.262Z,1008.95
2023-04-29T05:46:46.235Z,1008.98
2023-04-29T05:47:46.216Z,1008.97
2023-04-29T05:48:46.167Z,1008.98
2023-04-29T05:49:46.187Z,1009.00
2023-04-29T05:50:46.149Z,1009.03
2023-04-29T05:51:46.147Z,1009.01
2023-04-29T05:52:46.127Z,1009.01
2023-04-29T05:53:46.127Z,1009.06
2023-04-29T05:54:46.128Z,1009.08
2023-04-29T05:55:46.124Z,1009.10
2023-04-29T05:56:46.087Z,1009.10
2023-04-29T05:57:46.073Z,1009.14
2023-04-29T05:58:46.087Z,1009.10
2023-04-29T05:59:46.054Z,1009.13
2023-04-29T06:00:46.064Z,1009.18
2023-04-29T06:01:46.055Z,1009.16
2023-04-29T06:02:57.697Z,1009.18
2023-04-29T06:03:46.239Z,1009.23
2023-04-29T06:04:46.175Z,1009.20
2023-04-29T06:05:46.353Z,1009.28
2023-04-29T06:06:46.002Z,1009.27
2023-04-29T06:07:45.966Z,1009.26
2023-04-29T06:08:45.947Z,1009.35
2023-04-29T06:09:45.946Z,1009.35
2023-04-29T06:10:45.956Z,1009.32
2023-04-29T06:11:45.937Z,1009.38
2023-04-29T06:12:45.934Z,1009.36
2023-04-29T06:13:45.912Z,1009.39
2023-04-29T06:14:45.882Z,1009.38
2023-04-29T06:15:45.926Z,1009.36
2023-04-29T06:16:45.917Z,1009.36
2023-04-29T06:17:45.882Z,1009.39
2023-04-29T06:18:45.850Z,1009.45
2023-04-29T06:19:45.867Z,1009.44
2023-04-29T06:20:45.822Z,1009.44
2023-04-29T06:21:45.818Z,1009.53
2023-04-29T06:22:45.821Z,1009.47
2023-04-29T06:23:45.799Z,1009.51
2023-04-29T06:24:45.791Z,1009.55
2023-04-29T06:25:45.776Z,1009.60
2023-04-29T06:26:45.775Z,1009.63
2023-04-29T06:27:45.772Z,1009.60
2023-04-29T06:28:45.750Z,1009.60
2023-04-29T06:29:45.744Z,1009.60
2023-04-29T06:30:45.708Z,1009.62
2023-04-29T06:31:45.749Z,1009.67
2023-04-29T06:32:45.738Z,1009.65
2023-04-29T06:33:45.724Z,1009.62
2023-04-29T06:34:45.677Z,1009.68
2023-04-29T06:35:45.694Z,1009.66
2023-04-29T06:36:45.645Z,1009.66
2023-04-29T06:37:45.685Z,1009.70
2023-04-29T06:38:45.643Z,1009.68
2023-04-29T06:39:45.611Z,1009.62
2023-04-29T06:40:45.600Z,1009.67
2023-04-29T06:41:45.589Z,1009.67
2023-04-29T06:42:45.615Z,1009.68
2023-04-29T06:43:47.359Z,1009.73
2023-04-29T06:44:45.554Z,1009.69
2023-04-29T06:45:45.546Z,1009.73
2023-04-29T06:46:45.579Z,1009.76
2023-04-29T06:47:45.569Z,1009.79
2023-04-29T06:48:45.533Z,1009.82
2023-04-29T06:49:45.506Z,1009.82
2023-04-29T06:50:45.485Z,1009.81
2023-04-29T06:51:45.525Z,1009.83
2023-04-29T06:52:45.484Z,1009.85
2023-04-29T06:53:45.455Z,1009.87
2023-04-29T06:54:45.466Z,1009.91
2023-04-29T06:55:45.446Z,1009.92
2023-04-29T06:56:45.431Z,1009.91
2023-04-29T06:57:45.431Z,1009.93
2023-04-29T06:58:45.410Z,1009.97
2023-04-29T06:59:45.388Z,1009.91
2023-04-29T07:00:45.418Z,1009.95
2023-04-29T07:01:47.067Z,1010.02
2023-04-29T07:02:45.414Z,1009.97
2023-04-29T07:03:45.583Z,1009.98
2023-04-29T07:04:45.381Z,1010.00
2023-04-29T07:05:45.371Z,1010.03
2023-04-29T07:06:45.331Z,1010.05
2023-04-29T07:07:45.301Z,1010.08
2023-04-29T07:08:45.307Z,1010.14
2023-04-29T07:09:45.282Z,1010.13
2023-04-29T07:10:45.266Z,1010.16
2023-04-29T07:11:45.265Z,1010.16
2023-04-29T07:12:45.263Z,1010.23
2023-04-29T07:13:45.240Z,1010.26
2023-04-29T07:14:45.247Z,1010.25
2023-04-29T07:15:45.216Z,1010.28
2023-04-29T07:16:45.231Z,1010.30
2023-04-29T07:17:45.214Z,1010.34
2023-04-29T07:18:45.174Z,1010.33
2023-04-29T07:19:45.165Z,1010.28
2023-04-29T07:20:45.178Z,1010.36
2023-04-29T07:21:45.145Z,1010.36
2023-04-29T07:22:45.133Z,1010.42
2023-04-29T07:23:45.123Z,1010.43
2023-04-29T07:24:45.130Z,1010.43
2023-04-29T07:25:45.098Z,1010.43
2023-04-29T07:26:45.088Z,1010.46
2023-04-29T07:27:45.077Z,1010.46
2023-04-29T07:28:45.072Z,1010.47
2023-04-29T07:29:45.073Z,1010.47
2023-04-29T07:30:45.088Z,1010.52
2023-04-29T07:31:45.041Z,1010.53
2023-04-29T07:32:45.044Z,1010.55
2023-04-29T07:33:45.019Z,1010.57
2023-04-29T07:34:45.029Z,1010.57
2023-04-29T07:35:45.011Z,1010.60
2023-04-29T07:36:45.003Z,1010.61
2023-04-29T07:37:45.113Z,1010.62
2023-04-29T07:38:44.954Z,1010.60
2023-04-29T07:39:44.969Z,1010.60
2023-04-29T07:40:44.931Z,1010.63
2023-04-29T07:41:44.917Z,1010.63
2023-04-29T07:42:44.905Z,1010.65
2023-04-29T07:43:44.915Z,1010.72
2023-04-29T07:44:44.904Z,1010.67
2023-04-29T07:45:44.885Z,1010.68
2023-04-29T07:46:44.975Z,1010.70
2023-04-29T07:47:44.946Z,1010.70
2023-04-29T07:48:44.853Z,1010.72
2023-04-29T07:49:44.848Z,1010.68
2023-04-29T07:50:44.821Z,1010.73
2023-04-29T07:51:44.870Z,1010.83
2023-04-29T07:52:44.799Z,1010.77
2023-04-29T07:53:44.802Z,1010.82
2023-04-29T07:54:44.794Z,1010.81
2023-04-29T07:55:44.774Z,1010.84
2023-04-29T07:56:44.770Z,1010.86
2023-04-29T07:57:44.755Z,1010.83
2023-04-29T07:58:44.760Z,1010.87
2023-04-29T07:59:44.735Z,1010.87
2023-04-29T08:00:44.713Z,1010.89
2023-04-29T08:01:44.741Z,1010.87
2023-04-29T08:02:44.857Z,1010.96
2023-04-29T08:03:44.834Z,1010.94
2023-04-29T08:04:44.920Z,1010.93
2023-04-29T08:05:44.700Z,1010.88
2023-04-29T08:06:44.640Z,1010.96
2023-04-29T08:07:44.747Z,1010.95
2023-04-29T08:08:44.628Z,1011.00
2023-04-29T08:09:44.613Z,1011.00
2023-04-29T08:10:44.617Z,1011.00
2023-04-29T08:11:44.618Z,1011.02
2023-04-29T08:12:44.580Z,1011.00
2023-04-29T08:13:44.575Z,1011.06
2023-04-29T08:14:44.570Z,1011.09
2023-04-29T08:15:44.576Z,1011.06
2023-04-29T08:16:44.577Z,1011.10
2023-04-29T08:17:44.658Z,1011.10
2023-04-29T08:18:44.540Z,1011.08
2023-04-29T08:19:44.513Z,1011.09
2023-04-29T08:20:44.492Z,1011.12
2023-04-29T08:21:44.709Z,1011.11
2023-04-29T08:22:44.473Z,1011.11
2023-04-29T08:23:44.481Z,1011.11
2023-04-29T08:24:44.456Z,1011.08
2023-04-29T08:25:44.452Z,1011.15
2023-04-29T08:26:44.431Z,1011.17
2023-04-29T08:27:44.458Z,1011.13
2023-04-29T08:28:44.403Z,1011.12
2023-04-29T08:29:44.403Z,1011.18
2023-04-29T08:30:44.387Z,1011.15
2023-04-29T08:31:44.441Z,1011.14
2023-04-29T08:32:45.072Z,1011.14
2023-04-29T08:33:44.375Z,1011.15
2023-04-29T08:34:44.344Z,1011.16
2023-04-29T08:35:44.332Z,1011.21
2023-04-29T08:36:44.319Z,1011.22
2023-04-29T08:37:44.308Z,1011.27
2023-04-29T08:38:44.344Z,1011.30
2023-04-29T08:39:44.291Z,1011.30
2023-04-29T08:40:44.272Z,1011.31
2023-04-29T08:41:44.261Z,1011.39
2023-04-29T08:42:44.254Z,1011.37
2023-04-29T08:43:44.292Z,1011.39
2023-04-29T08:44:44.259Z,1011.46
2023-04-29T08:45:44.257Z,1011.45
2023-04-29T08:46:44.237Z,1011.47
2023-04-29T08:47:44.238Z,1011.50
2023-04-29T08:48:45.520Z,1011.47
2023-04-29T08:49:44.211Z,1011.48
2023-04-29T08:50:44.162Z,1011.48
2023-04-29T08:51:44.163Z,1011.49
2023-04-29T08:52:44.145Z,1011.49
2023-04-29T08:53:44.135Z,1011.50
2023-04-29T08:54:44.123Z,1011.52
2023-04-29T08:55:44.130Z,1011.47
2023-04-29T08:56:44.102Z,1011.54
2023-04-29T08:57:44.093Z,1011.51
2023-04-29T08:58:44.075Z,1011.47
2023-04-29T08:59:44.075Z,1011.50
2023-04-29T09:00:44.087Z,1011.54
2023-04-29T09:01:44.114Z,1011.51
2023-04-29T09:02:44.064Z,1011.47
2023-04-29T09:03:44.267Z,1011.53
2023-04-29T09:04:44.048Z,1011.53
2023-04-29T09:05:44.002Z,1011.57
2023-04-29T09:06:44.017Z,1011.54
2023-04-29T09:07:43.985Z,1011.55
2023-04-29T09:08:43.990Z,1011.61
2023-04-29T09:09:43.987Z,1011.54
2023-04-29T09:10:43.950Z,1011.47
2023-04-29T09:11:43.947Z,1011.53
2023-04-29T09:12:43.950Z,1011.54
2023-04-29T09:13:43.918Z,1011.59
2023-04-29T09:14:43.907Z,1011.59
2023-04-29T09:15:43.894Z,1011.62
2023-04-29T09:16:43.900Z,1011.59
2023-04-29T09:17:43.979Z,1011.60
2023-04-29T09:18:43.880Z,1011.56
2023-04-29T09:19:43.854Z,1011.64
2023-04-29T09:20:43.843Z,1011.64
2023-04-29T09:21:43.824Z,1011.63
2023-04-29T09:22:43.924Z,1011.69
2023-04-29T09:23:43.920Z,1011.70
2023-04-29T09:24:43.831Z,1011.65
2023-04-29T09:25:43.784Z,1011.74
2023-04-29T09:26:43.857Z,1011.72
2023-04-29T09:27:43.758Z,1011.70
2023-04-29T09:28:43.783Z,1011.74
2023-04-29T09:29:43.739Z,1011.74
2023-04-29T09:30:43.731Z,1011.72
2023-04-29T09:31:43.808Z,1011.75
2023-04-29T09:32:43.792Z,1011.75
2023-04-29T09:33:43.696Z,1011.76
2023-04-29T09:34:43.727Z,1011.70
2023-04-29T09:35:43.680Z,1011.72
2023-04-29T09:36:43.661Z,1011.74
2023-04-29T09:37:43.649Z,1011.79
2023-04-29T09:38:44.714Z,1011.80
2023-04-29T09:39:43.659Z,1011.81
2023-04-29T09:40:58.108Z,1011.81
2023-04-29T09:41:43.629Z,1011.84
2023-04-29T09:42:43.615Z,1011.82
2023-04-29T09:43:43.597Z,1011.79
2023-04-29T09:44:43.603Z,1011.82
2023-04-29T09:45:43.635Z,1011.83
2023-04-29T09:46:43.557Z,1011.84
2023-04-29T09:47:43.566Z,1011.84
2023-04-29T09:48:43.537Z,1011.83
2023-04-29T09:49:43.549Z,1011.84
2023-04-29T09:50:43.520Z,1011.89
2023-04-29T09:51:43.506Z,1011.87
2023-04-29T09:52:43.514Z,1011.87
2023-04-29T09:53:43.475Z,1011.90
2023-04-29T09:54:43.503Z,1011.87
2023-04-29T09:55:43.484Z,1011.90
2023-04-29T09:56:43.452Z,1011.90
2023-04-29T09:57:45.156Z,1011.94
2023-04-29T09:58:43.428Z,1011.90
2023-04-29T09:59:43.439Z,1011.93
2023-04-29T10:00:43.574Z,1011.92
2023-04-29T10:01:43.401Z,1011.93
2023-04-29T10:02:43.568Z,1011.89
2023-04-29T10:03:43.520Z,1011.89
2023-04-29T10:04:43.403Z,1011.92
2023-04-29T10:05:43.379Z,1011.84
2023-04-29T10:06:43.340Z,1011.84
2023-04-29T10:07:43.329Z,1011.91
2023-04-29T10:08:43.318Z,1011.87
2023-04-29T10:09:43.304Z,1011.90
2023-04-29T10:10:43.293Z,1011.87
2023-04-29T10:11:43.316Z,1011.96
2023-04-29T10:12:43.269Z,1011.98
2023-04-29T10:13:43.258Z,1011.97
2023-04-29T10:14:43.258Z,1011.94
2023-04-29T10:15:43.337Z,1011.92
2023-04-29T10:16:43.229Z,1011.89
2023-04-29T10:17:43.231Z,1011.92
2023-04-29T10:18:43.246Z,1011.94
2023-04-29T10:19:43.199Z,1011.92
2023-04-29T10:20:43.192Z,1011.89
2023-04-29T10:21:43.168Z,1011.91
2023-04-29T10:22:43.194Z,1011.96
2023-04-29T10:23:43.171Z,1011.91
2023-04-29T10:24:43.158Z,1011.94
2023-04-29T10:25:43.132Z,1011.98
2023-04-29T10:26:43.137Z,1011.91
2023-04-29T10:27:43.138Z,1011.92
2023-04-29T10:28:43.093Z,1011.88
2023-04-29T10:29:43.085Z,1011.83
2023-04-29T10:30:43.068Z,1011.81
2023-04-29T10:31:43.095Z,1011.90
2023-04-29T10:32:50.423Z,1011.83
2023-04-29T10:33:43.058Z,1011.89
2023-04-29T10:34:43.032Z,1011.85
2023-04-29T10:35:43.022Z,1011.90
2023-04-29T10:36:43.008Z,1011.85
2023-04-29T10:37:42.996Z,1011.90
2023-04-29T10:38:43.011Z,1011.96
2023-04-29T10:39:42.970Z,1011.87
2023-04-29T10:40:42.960Z,1011.91
2023-04-29T10:41:42.950Z,1011.87
2023-04-29T10:42:42.944Z,1011.87
2023-04-29T10:43:42.958Z,1011.83
2023-04-29T10:44:42.918Z,1011.86
2023-04-29T10:45:42.904Z,1011.84
2023-04-29T10:46:43.070Z,1011.88
2023-04-29T10:47:42.927Z,1011.85
2023-04-29T10:48:42.877Z,1011.91
2023-04-29T10:49:42.887Z,1011.89
2023-04-29T10:50:42.888Z,1011.94
2023-04-29T10:51:42.970Z,1011.92
2023-04-29T10:52:42.871Z,1011.91
2023-04-29T10:53:42.823Z,1011.97
2023-04-29T10:54:44.149Z,1011.97
2023-04-29T10:55:42.842Z,1011.93
2023-04-29T10:56:42.787Z,1011.94
2023-04-29T10:57:42.813Z,1011.92
2023-04-29T10:58:42.805Z,1011.96
2023-04-29T10:59:49.628Z,1011.96
2023-04-29T11:00:42.792Z,1011.93
2023-04-29T11:01:42.733Z,1011.92
2023-04-29T11:02:42.767Z,1011.95
2023-04-29T11:03:42.893Z,1011.96
2023-04-29T11:04:42.781Z,1011.91
2023-04-29T11:05:42.696Z,1011.95
2023-04-29T11:06:42.720Z,1011.97
2023-04-29T11:07:42.676Z,1011.99
2023-04-29T11:08:42.694Z,1011.95
2023-04-29T11:09:42.668Z,1011.97
2023-04-29T11:10:42.665Z,1011.97
2023-04-29T11:11:42.642Z,1011.95
2023-04-29T11:12:42.652Z,1011.96
2023-04-29T11:13:42.635Z,1011.98
2023-04-29T11:14:42.603Z,1011.98
2023-04-29T11:15:42.614Z,1012.02
2023-04-29T11:16:42.619Z,1012.01
2023-04-29T11:17:42.638Z,1011.97
2023-04-29T11:18:42.563Z,1012.04
2023-04-29T11:19:42.569Z,1012.05
2023-04-29T11:20:42.535Z,1012.07
2023-04-29T11:21:43.215Z,1012.07
2023-04-29T11:22:42.542Z,1012.13
2023-04-29T11:23:42.501Z,1012.11
2023-04-29T11:24:43.179Z,1012.12
2023-04-29T11:25:42.481Z,1012.09
2023-04-29T11:26:42.494Z,1012.09
2023-04-29T11:27:42.492Z,1012.11
2023-04-29T11:28:42.482Z,1012.14
2023-04-29T11:29:42.433Z,1012.00
2023-04-29T11:30:42.421Z,1012.07
2023-04-29T11:31:42.506Z,1012.04
2023-04-29T11:32:42.490Z,1012.06
2023-04-29T11:33:42.428Z,1012.11
2023-04-29T11:34:42.395Z,1012.08
2023-04-29T11:35:42.373Z,1012.10
2023-04-29T11:36:42.367Z,1012.09
2023-04-29T11:37:42.348Z,1012.08
2023-04-29T11:38:42.337Z,1012.07
2023-04-29T11:39:42.362Z,1012.06
2023-04-29T11:40:42.313Z,1012.12
2023-04-29T11:41:42.306Z,1012.10
2023-04-29T11:42:42.317Z,1012.13
2023-04-29T11:43:42.289Z,1012.13
2023-04-29T11:44:42.273Z,1012.15
2023-04-29T11:45:42.308Z,1012.20
2023-04-29T11:46:42.267Z,1012.24
2023-04-29T11:47:42.242Z,1012.22
2023-04-29T11:48:42.226Z,1012.22
2023-04-29T11:49:42.237Z,1012.21
2023-04-29T11:50:42.207Z,1012.24
2023-04-29T11:51:42.206Z,1012.22
2023-04-29T11:52:42.181Z,1012.22
2023-04-29T11:53:42.199Z,1012.23
2023-04-29T11:54:42.169Z,1012.22
2023-04-29T11:55:42.151Z,1012.25
2023-04-29T11:56:42.138Z,1012.26
2023-04-29T11:57:42.119Z,1012.27
2023-04-29T11:58:42.161Z,1012.27
2023-04-29T11:59:42.104Z,1012.23
2023-04-29T12:00:42.092Z,1012.31
2023-04-29T12:01:42.109Z,1012.30
2023-04-29T12:02:42.182Z,1012.28
2023-04-29T12:03:42.322Z,1012.32
2023-04-29T12:04:42.260Z,1012.30
2023-04-29T12:05:42.083Z,1012.30